Terminal Aerodrome Forecast
Issued by NWS Twin Cities, MN

Home | Current Version | Previous Version | Graphics & Text | Print | Product List | Glossary On
Versions: 1 2 3 4 5 6 7 8 9 10 11 12 13 14 15 16 17 18 19 20 21 22 23 24
000
FTUS43 KMPX 291400 AAA
TAFMSP
TAF AMD
KMSP 291454Z 2915/3018 30010KT P6SM BKN025
     FM291800 28007KT P6SM BKN030
     FM292100 27006KT P6SM SCT035
     FM300000 21005KT P6SM BKN110
     FM300900 16006KT P6SM VCSH BKN060=

USA.gov is the U.S. government's official web portal to all federal, state and local government web resources and services.